createdAt,value
2019-02-27T00:00:11.417Z,0.00
2019-02-27T00:01:10.376Z,0.00
2019-02-27T00:02:10.369Z,0.00
2019-02-27T00:03:10.359Z,0.00
2019-02-27T00:04:10.362Z,0.00
2019-02-27T00:05:10.351Z,0.00
2019-02-27T00:06:10.343Z,0.00
2019-02-27T00:07:10.336Z,0.00
2019-02-27T00:08:10.326Z,0.00
2019-02-27T00:09:10.323Z,0.00
2019-02-27T00:10:10.332Z,0.00
2019-02-27T00:11:12.479Z,0.00
2019-02-27T00:12:10.301Z,0.00
2019-02-27T00:13:10.301Z,0.00
2019-02-27T00:14:10.286Z,0.00
2019-02-27T00:15:10.289Z,0.00
2019-02-27T00:16:11.158Z,0.00
2019-02-27T00:17:10.273Z,0.00
2019-02-27T00:18:10.263Z,0.00
2019-02-27T00:19:10.268Z,0.00
2019-02-27T00:20:10.252Z,0.00
2019-02-27T00:21:11.185Z,0.00
2019-02-27T00:22:10.238Z,0.00
2019-02-27T00:23:10.227Z,0.00
2019-02-27T00:24:10.246Z,0.00
2019-02-27T00:25:10.215Z,0.00
2019-02-27T00:26:10.216Z,0.00
2019-02-27T00:27:10.203Z,0.00
2019-02-27T00:28:10.193Z,0.00
2019-02-27T00:29:10.208Z,0.00
2019-02-27T00:30:10.180Z,0.00
2019-02-27T00:31:11.418Z,0.00
2019-02-27T00:32:10.167Z,0.00
2019-02-27T00:33:10.158Z,0.00
2019-02-27T00:34:10.151Z,0.00
2019-02-27T00:35:10.146Z,0.00
2019-02-27T00:36:12.400Z,0.00
2019-02-27T00:37:10.133Z,0.00
2019-02-27T00:38:10.136Z,0.00
2019-02-27T00:39:10.121Z,0.00
2019-02-27T00:40:10.115Z,0.00
2019-02-27T00:41:12.868Z,0.00
2019-02-27T00:42:10.098Z,0.00
2019-02-27T00:43:10.094Z,0.00
2019-02-27T00:44:10.083Z,0.00
2019-02-27T00:45:10.088Z,0.00
2019-02-27T00:46:10.742Z,0.00
2019-02-27T00:47:10.067Z,0.00
2019-02-27T00:48:10.058Z,0.00
2019-02-27T00:49:10.065Z,0.00
2019-02-27T00:50:10.064Z,0.00
2019-02-27T00:51:12.039Z,0.00
2019-02-27T00:52:10.029Z,0.00
2019-02-27T00:53:10.026Z,0.00
2019-02-27T00:54:10.019Z,0.00
2019-02-27T00:55:10.009Z,0.00
2019-02-27T00:56:12.246Z,0.00
2019-02-27T00:57:10.010Z,0.00
2019-02-27T00:58:09.990Z,0.00
2019-02-27T00:59:10.035Z,0.00
2019-02-27T01:00:09.976Z,0.00
2019-02-27T01:01:12.419Z,0.00
2019-02-27T01:02:09.962Z,0.00
2019-02-27T01:03:09.964Z,0.00
2019-02-27T01:04:09.947Z,0.00
2019-02-27T01:05:09.972Z,0.00
2019-02-27T01:06:12.237Z,0.00
2019-02-27T01:07:09.928Z,0.00
2019-02-27T01:08:09.923Z,0.00
2019-02-27T01:09:09.918Z,0.00
2019-02-27T01:10:11.959Z,0.00
2019-02-27T01:11:09.902Z,0.00
2019-02-27T01:12:09.896Z,0.00
2019-02-27T01:13:09.889Z,0.00
2019-02-27T01:14:09.898Z,0.00
2019-02-27T01:15:10.692Z,0.00
2019-02-27T01:16:09.863Z,0.00
2019-02-27T01:17:09.860Z,0.00
2019-02-27T01:18:09.851Z,0.00
2019-02-27T01:19:09.844Z,0.00
2019-02-27T01:20:11.489Z,0.00
2019-02-27T01:21:09.834Z,0.00
2019-02-27T01:22:09.837Z,0.00
2019-02-27T01:23:11.146Z,0.00
2019-02-27T01:24:09.824Z,0.00
2019-02-27T01:25:09.802Z,0.00
2019-02-27T01:26:09.797Z,0.00
2019-02-27T01:27:09.802Z,0.00
2019-02-27T01:28:11.016Z,0.00
2019-02-27T01:29:09.780Z,0.00
2019-02-27T01:30:09.773Z,0.00
2019-02-27T01:31:09.758Z,0.00
2019-02-27T01:32:09.753Z,0.00
2019-02-27T01:33:09.754Z,0.00
2019-02-27T01:34:11.363Z,0.00
2019-02-27T01:35:09.741Z,0.00
2019-02-27T01:36:09.731Z,0.00
2019-02-27T01:37:09.718Z,0.00
2019-02-27T01:38:09.713Z,0.00
2019-02-27T01:39:11.336Z,0.00
2019-02-27T01:40:09.707Z,0.00
2019-02-27T01:41:09.700Z,0.00
2019-02-27T01:42:09.684Z,0.00
2019-02-27T01:43:09.705Z,0.00
2019-02-27T01:44:11.092Z,0.00
2019-02-27T01:45:09.664Z,0.00
2019-02-27T01:46:09.691Z,0.00
2019-02-27T01:47:09.652Z,0.00
2019-02-27T01:48:09.855Z,0.00
2019-02-27T01:49:09.637Z,0.00
2019-02-27T01:50:09.626Z,0.00
2019-02-27T01:51:09.622Z,0.00
2019-02-27T01:52:09.612Z,0.00
2019-02-27T01:53:09.605Z,0.00
2019-02-27T01:54:12.262Z,0.00
2019-02-27T01:55:09.593Z,0.00
2019-02-27T01:56:09.585Z,0.00
2019-02-27T01:57:09.578Z,0.00
2019-02-27T01:58:10.253Z,0.00
2019-02-27T01:59:09.565Z,0.00
2019-02-27T02:00:09.556Z,0.00
2019-02-27T02:01:09.563Z,0.00
2019-02-27T02:02:09.542Z,0.00
2019-02-27T02:03:11.220Z,0.00
2019-02-27T02:04:09.525Z,0.00
2019-02-27T02:05:09.521Z,0.00
2019-02-27T02:06:09.518Z,0.00
2019-02-27T02:07:09.512Z,0.00
2019-02-27T02:08:13.630Z,0.00
2019-02-27T02:09:11.476Z,0.00
2019-02-27T02:10:09.484Z,0.00
2019-02-27T02:11:09.481Z,0.00
2019-02-27T02:12:09.492Z,0.00
2019-02-27T02:13:09.465Z,0.00
2019-02-27T02:14:09.462Z,0.00
2019-02-27T02:15:09.449Z,0.00
2019-02-27T02:16:09.444Z,0.00
2019-02-27T02:17:09.439Z,0.00
2019-02-27T02:18:11.875Z,0.00
2019-02-27T02:19:09.427Z,0.00
2019-02-27T02:20:09.417Z,0.00
2019-02-27T02:21:09.411Z,0.00
2019-02-27T02:22:09.419Z,0.00
2019-02-27T02:23:13.938Z,0.00
2019-02-27T02:24:09.396Z,0.00
2019-02-27T02:25:09.418Z,0.00
2019-02-27T02:26:09.404Z,0.00
2019-02-27T02:27:09.367Z,0.00
2019-02-27T02:28:09.377Z,0.00
2019-02-27T02:29:09.357Z,0.00
2019-02-27T02:30:09.353Z,0.00
2019-02-27T02:31:09.341Z,0.00
2019-02-27T02:32:09.361Z,0.00
2019-02-27T02:33:09.327Z,0.00
2019-02-27T02:34:09.317Z,0.00
2019-02-27T02:35:14.850Z,0.00
2019-02-27T02:36:09.311Z,0.00
2019-02-27T02:37:09.304Z,0.00
2019-02-27T02:38:12.569Z,0.00
2019-02-27T02:39:09.285Z,0.00
2019-02-27T02:40:09.287Z,0.00
2019-02-27T02:41:09.398Z,0.00
2019-02-27T02:42:09.283Z,0.00
2019-02-27T02:43:09.274Z,0.00
2019-02-27T02:44:09.246Z,0.00
2019-02-27T02:45:09.237Z,0.00
2019-02-27T02:46:09.795Z,0.00
2019-02-27T02:47:09.224Z,0.00
2019-02-27T02:48:09.212Z,0.00
2019-02-27T02:49:09.226Z,0.00
2019-02-27T02:50:09.202Z,0.00
2019-02-27T02:51:09.201Z,0.00
2019-02-27T02:52:09.192Z,0.00
2019-02-27T02:53:09.182Z,0.00
2019-02-27T02:54:09.171Z,0.00
2019-02-27T02:55:12.749Z,0.00
2019-02-27T02:56:09.155Z,0.00
2019-02-27T02:57:09.156Z,0.00
2019-02-27T02:58:11.551Z,0.00
2019-02-27T02:59:09.139Z,0.00
2019-02-27T03:00:09.134Z,0.00
2019-02-27T03:01:14.164Z,0.00
2019-02-27T03:02:09.115Z,0.00
2019-02-27T03:03:09.108Z,0.00
2019-02-27T03:04:12.478Z,0.00
2019-02-27T03:05:09.095Z,0.00
2019-02-27T03:06:09.122Z,0.00
2019-02-27T03:07:10.840Z,0.00
2019-02-27T03:08:09.072Z,0.00
2019-02-27T03:09:09.063Z,0.00
2019-02-27T03:10:09.059Z,0.00
2019-02-27T03:11:09.062Z,0.00
2019-02-27T03:12:09.065Z,0.00
2019-02-27T03:13:09.058Z,0.00
2019-02-27T03:14:09.026Z,0.00
2019-02-27T03:15:09.028Z,0.00
2019-02-27T03:16:09.017Z,0.00
2019-02-27T03:17:09.006Z,0.00
2019-02-27T03:18:09.008Z,0.00
2019-02-27T03:19:08.992Z,0.00
2019-02-27T03:20:08.991Z,0.00
2019-02-27T03:21:08.980Z,0.00
2019-02-27T03:22:08.969Z,0.00
2019-02-27T03:23:08.963Z,0.00
2019-02-27T03:24:08.959Z,0.00
2019-02-27T03:25:08.958Z,0.00
2019-02-27T03:26:08.940Z,0.00
2019-02-27T03:27:08.932Z,0.00
2019-02-27T03:28:08.924Z,0.00
2019-02-27T03:29:08.926Z,0.00
2019-02-27T03:30:08.910Z,0.00
2019-02-27T03:31:16.394Z,0.00
2019-02-27T03:32:08.900Z,0.00
2019-02-27T03:33:08.894Z,0.00
2019-02-27T03:34:09.327Z,0.00
2019-02-27T03:35:08.874Z,0.00
2019-02-27T03:36:08.868Z,0.00
2019-02-27T03:37:13.082Z,0.00
2019-02-27T03:38:08.850Z,0.00
2019-02-27T03:39:08.847Z,0.00
2019-02-27T03:40:11.811Z,0.00
2019-02-27T03:41:08.831Z,0.00
2019-02-27T03:42:08.832Z,0.00
2019-02-27T03:43:10.483Z,0.00
2019-02-27T03:44:08.817Z,0.00
2019-02-27T03:45:08.798Z,0.00
2019-02-27T03:46:08.799Z,0.00
2019-02-27T03:47:08.782Z,0.00
2019-02-27T03:48:08.785Z,0.00
2019-02-27T03:49:08.767Z,0.00
2019-02-27T03:50:14.558Z,0.00
2019-02-27T03:51:08.757Z,0.00
2019-02-27T03:52:08.746Z,0.00
2019-02-27T03:53:11.107Z,0.00
2019-02-27T03:54:08.733Z,0.00
2019-02-27T03:55:08.723Z,0.00
2019-02-27T03:56:09.874Z,0.00
2019-02-27T03:57:08.738Z,0.00
2019-02-27T03:58:08.702Z,0.00
2019-02-27T03:59:08.695Z,0.00
2019-02-27T04:00:08.691Z,0.00
2019-02-27T04:01:08.679Z,0.00
2019-02-27T04:02:08.671Z,0.00
2019-02-27T04:03:08.663Z,0.00
2019-02-27T04:04:08.653Z,0.00
2019-02-27T04:05:08.656Z,0.00
2019-02-27T04:06:08.644Z,0.00
2019-02-27T04:07:08.637Z,0.00
2019-02-27T04:08:09.047Z,0.00
2019-02-27T04:09:08.622Z,0.00
2019-02-27T04:10:08.611Z,0.00
2019-02-27T04:11:08.630Z,0.00
2019-02-27T04:12:08.592Z,0.00
2019-02-27T04:13:08.587Z,0.00
2019-02-27T04:14:08.608Z,0.00
2019-02-27T04:15:08.581Z,0.00
2019-02-27T04:16:08.598Z,0.00
2019-02-27T04:17:08.558Z,0.00
2019-02-27T04:18:08.550Z,0.00
2019-02-27T04:19:08.541Z,0.00
2019-02-27T04:20:14.552Z,0.00
2019-02-27T04:21:08.529Z,0.00
2019-02-27T04:22:08.542Z,0.00
2019-02-27T04:23:11.461Z,0.00
2019-02-27T04:24:08.510Z,0.00
2019-02-27T04:25:08.510Z,0.00
2019-02-27T04:26:08.493Z,0.00
2019-02-27T04:27:08.497Z,0.00
2019-02-27T04:28:08.477Z,0.00
2019-02-27T04:29:08.637Z,0.00
2019-02-27T04:30:08.458Z,0.00
2019-02-27T04:31:08.457Z,0.00
2019-02-27T04:32:09.597Z,0.00
2019-02-27T04:33:08.438Z,0.00
2019-02-27T04:34:08.460Z,0.00
2019-02-27T04:35:08.422Z,0.00
2019-02-27T04:36:12.432Z,0.00
2019-02-27T04:37:08.408Z,0.00
2019-02-27T04:38:08.399Z,0.00
2019-02-27T04:39:08.390Z,0.00
2019-02-27T04:40:10.882Z,0.00
2019-02-27T04:41:08.381Z,0.00
2019-02-27T04:42:08.371Z,0.00
2019-02-27T04:43:08.363Z,0.00
2019-02-27T04:44:08.367Z,0.00
2019-02-27T04:45:12.003Z,0.00
2019-02-27T04:46:08.339Z,0.00
2019-02-27T04:47:08.331Z,0.00
2019-02-27T04:48:08.323Z,0.00
2019-02-27T04:49:08.313Z,0.00
2019-02-27T04:50:10.923Z,0.00
2019-02-27T04:51:08.321Z,0.00
2019-02-27T04:52:08.293Z,0.00
2019-02-27T04:53:08.302Z,0.00
2019-02-27T04:54:08.282Z,0.00
2019-02-27T04:55:08.267Z,0.00
2019-02-27T04:56:08.259Z,0.00
2019-02-27T04:57:08.252Z,0.00
2019-02-27T04:58:09.085Z,0.00
2019-02-27T04:59:08.245Z,0.00
2019-02-27T05:00:08.255Z,0.00
2019-02-27T05:01:08.221Z,0.00
2019-02-27T05:02:08.225Z,0.00
2019-02-27T05:03:08.223Z,0.00
2019-02-27T05:04:08.201Z,0.00
2019-02-27T05:05:08.755Z,0.00
2019-02-27T05:06:08.184Z,0.00
2019-02-27T05:07:08.179Z,0.00
2019-02-27T05:08:08.174Z,0.00
2019-02-27T05:09:08.166Z,0.00
2019-02-27T05:10:08.155Z,0.00
2019-02-27T05:11:08.178Z,0.00
2019-02-27T05:12:08.172Z,0.00
2019-02-27T05:13:08.132Z,0.00
2019-02-27T05:14:08.126Z,0.00
2019-02-27T05:15:08.118Z,0.00
2019-02-27T05:16:08.133Z,0.00
2019-02-27T05:17:08.101Z,0.00
2019-02-27T05:18:08.098Z,0.00
2019-02-27T05:19:08.087Z,0.00
2019-02-27T05:20:11.510Z,0.00
2019-02-27T05:21:08.104Z,0.00
2019-02-27T05:22:08.062Z,0.00
2019-02-27T05:23:08.051Z,0.00
2019-02-27T05:24:08.675Z,0.00
2019-02-27T05:25:08.065Z,0.00
2019-02-27T05:26:08.034Z,0.00
2019-02-27T05:27:08.027Z,0.00
2019-02-27T05:28:08.020Z,0.00
2019-02-27T05:29:08.008Z,0.00
2019-02-27T05:30:12.021Z,0.00
2019-02-27T05:31:07.996Z,0.00
2019-02-27T05:32:07.991Z,0.00
2019-02-27T05:33:08.010Z,0.00
2019-02-27T05:34:12.732Z,0.00
2019-02-27T05:35:07.966Z,0.00
2019-02-27T05:36:07.963Z,0.00
2019-02-27T05:37:09.472Z,0.00
2019-02-27T05:38:07.951Z,0.00
2019-02-27T05:39:07.939Z,0.00
2019-02-27T05:40:08.132Z,0.00
2019-02-27T05:41:07.919Z,0.00
2019-02-27T05:42:07.912Z,0.00
2019-02-27T05:43:07.903Z,0.00
2019-02-27T05:44:09.446Z,0.00
2019-02-27T05:45:07.914Z,0.00
2019-02-27T05:46:07.887Z,0.00
2019-02-27T05:47:08.653Z,0.00
2019-02-27T05:48:07.878Z,0.00
2019-02-27T05:49:07.865Z,0.00
2019-02-27T05:50:07.848Z,0.00
2019-02-27T05:51:10.735Z,0.00
2019-02-27T05:52:07.870Z,0.00
2019-02-27T05:53:07.854Z,0.00
2019-02-27T05:54:15.334Z,0.00
2019-02-27T05:56:02.085Z,0.00
2019-02-27T05:57:01.580Z,0.00
2019-02-27T05:58:56.375Z,0.00
2019-02-27T06:00:02.557Z,0.00
2019-02-27T06:01:49.088Z,0.00
2019-02-27T06:02:48.407Z,0.00
2019-02-27T06:04:41.845Z,0.00
2019-02-27T06:05:49.261Z,0.00
2019-02-27T06:07:34.076Z,5.63
2019-02-27T06:08:36.713Z,5.63
2019-02-27T06:10:28.602Z,5.63
2019-02-27T06:11:29.575Z,5.63
2019-02-27T06:13:20.525Z,5.63
2019-02-27T06:14:21.399Z,5.63
2019-02-27T06:16:13.137Z,11.25
2019-02-27T06:17:13.524Z,11.25
2019-02-27T06:19:05.980Z,11.25
2019-02-27T06:20:08.009Z,11.25
2019-02-27T06:21:59.396Z,16.88
2019-02-27T06:23:03.834Z,16.88
2019-02-27T06:24:52.420Z,16.88
2019-02-27T06:25:52.156Z,16.88
2019-02-27T06:27:45.152Z,16.88
2019-02-27T06:28:44.895Z,22.50
2019-02-27T06:30:37.869Z,22.50
2019-02-27T06:31:39.517Z,22.50
2019-02-27T06:32:37.674Z,22.50
2019-02-27T06:33:37.866Z,28.13
2019-02-27T06:34:37.644Z,39.38
2019-02-27T06:35:37.640Z,73.13
2019-02-27T06:36:42.020Z,101.25
2019-02-27T06:37:37.621Z,106.88
2019-02-27T06:38:37.613Z,101.25
2019-02-27T06:39:37.605Z,101.25
2019-02-27T06:40:42.030Z,112.50
2019-02-27T06:41:37.597Z,118.13
2019-02-27T06:42:37.581Z,129.38
2019-02-27T06:43:37.578Z,129.38
2019-02-27T06:44:39.327Z,135.00
2019-02-27T06:45:37.567Z,140.63
2019-02-27T06:46:37.558Z,146.25
2019-02-27T06:47:37.554Z,151.88
2019-02-27T06:48:37.550Z,157.50
2019-02-27T06:49:37.546Z,163.13
2019-02-27T06:50:37.550Z,168.75
2019-02-27T06:51:37.531Z,174.38
2019-02-27T06:52:37.536Z,180.00
2019-02-27T06:53:37.529Z,185.63
2019-02-27T06:54:37.858Z,191.25
2019-02-27T06:55:37.518Z,191.25
2019-02-27T06:56:37.511Z,202.50
2019-02-27T06:57:41.027Z,208.13
2019-02-27T06:58:37.506Z,213.75
2019-02-27T06:59:37.506Z,219.38
2019-02-27T07:00:37.502Z,225.00
2019-02-27T07:01:37.500Z,230.63
2019-02-27T07:02:37.497Z,241.88
2019-02-27T07:03:37.501Z,253.13
2019-02-27T07:04:39.494Z,258.75
2019-02-27T07:05:37.527Z,270.00
2019-02-27T07:06:37.493Z,281.25
2019-02-27T07:07:37.509Z,315.00
2019-02-27T07:08:38.177Z,348.75
2019-02-27T07:09:37.488Z,388.13
2019-02-27T07:10:37.488Z,478.13
2019-02-27T07:11:37.487Z,675.00
2019-02-27T07:12:37.488Z,770.63
2019-02-27T07:13:37.491Z,61.88
2019-02-27T07:14:39.087Z,675.00
2019-02-27T07:15:37.496Z,675.00
2019-02-27T07:16:37.494Z,708.75
2019-02-27T07:17:37.486Z,691.88
2019-02-27T07:18:41.474Z,680.63
2019-02-27T07:19:37.491Z,748.13
2019-02-27T07:20:37.490Z,866.25
2019-02-27T07:21:37.497Z,804.38
2019-02-27T07:22:37.511Z,781.88
2019-02-27T07:23:37.499Z,821.25
2019-02-27T07:24:37.509Z,939.38
2019-02-27T07:25:41.955Z,1023.75
2019-02-27T07:26:37.505Z,1080.00
2019-02-27T07:27:37.510Z,1153.13
2019-02-27T07:28:37.515Z,1175.63
2019-02-27T07:29:37.515Z,1170.00
2019-02-27T07:30:39.887Z,1209.38
2019-02-27T07:31:37.527Z,1411.88
2019-02-27T07:32:37.526Z,1490.63
2019-02-27T07:33:37.989Z,1383.75
2019-02-27T07:34:37.531Z,1440.00
2019-02-27T07:35:37.539Z,1575.00
2019-02-27T07:36:38.521Z,1636.88
2019-02-27T07:37:37.546Z,1558.13
2019-02-27T07:38:37.552Z,1580.63
2019-02-27T07:39:37.561Z,1614.38
2019-02-27T07:40:37.564Z,1524.38
2019-02-27T07:41:37.569Z,1586.25
2019-02-27T07:42:37.572Z,1681.88
2019-02-27T07:43:37.578Z,1603.13
2019-02-27T07:44:37.583Z,1586.25
2019-02-27T07:45:37.590Z,1575.00
2019-02-27T07:46:37.599Z,1597.50
2019-02-27T07:47:37.598Z,1552.50
2019-02-27T07:48:37.607Z,1456.88
2019-02-27T07:49:37.610Z,1395.00
2019-02-27T07:50:37.618Z,1434.38
2019-02-27T07:51:37.630Z,1451.25
2019-02-27T07:52:37.630Z,1473.75
2019-02-27T07:53:37.636Z,1445.63
2019-02-27T07:54:37.659Z,1248.75
2019-02-27T07:55:37.653Z,1237.50
2019-02-27T07:56:37.657Z,1434.38
2019-02-27T07:57:37.663Z,1085.63
2019-02-27T07:58:37.669Z,1046.25
2019-02-27T07:59:38.132Z,1293.75
2019-02-27T08:00:37.698Z,1378.13
2019-02-27T08:01:43.767Z,1108.13
2019-02-27T08:02:37.693Z,776.25
2019-02-27T08:03:37.711Z,725.63
2019-02-27T08:04:37.712Z,686.25
2019-02-27T08:05:37.711Z,759.38
2019-02-27T08:06:38.485Z,545.63
2019-02-27T08:07:37.725Z,607.50
2019-02-27T08:08:37.732Z,697.50
2019-02-27T08:09:37.738Z,798.75
2019-02-27T08:10:37.744Z,500.63
2019-02-27T08:11:37.753Z,483.75
2019-02-27T08:12:37.757Z,691.88
2019-02-27T08:13:37.765Z,590.63
2019-02-27T08:14:37.934Z,624.38
2019-02-27T08:15:37.774Z,720.00
2019-02-27T08:16:37.780Z,1057.50
2019-02-27T08:17:38.726Z,1158.75
2019-02-27T08:18:38.240Z,810.00
2019-02-27T08:19:37.799Z,956.25
2019-02-27T08:20:37.808Z,838.13
2019-02-27T08:21:37.810Z,1063.13
2019-02-27T08:22:37.827Z,1040.63
2019-02-27T08:23:37.828Z,793.13
2019-02-27T08:24:37.830Z,793.13
2019-02-27T08:25:37.831Z,703.13
2019-02-27T08:26:37.842Z,883.13
2019-02-27T08:27:37.854Z,680.63
2019-02-27T08:28:37.854Z,478.13
2019-02-27T08:29:37.872Z,776.25
2019-02-27T08:30:37.869Z,832.50
2019-02-27T08:31:37.871Z,1046.25
2019-02-27T08:32:37.880Z,1220.63
2019-02-27T08:33:37.888Z,945.00
2019-02-27T08:34:37.892Z,1113.75
2019-02-27T08:35:37.900Z,1141.88
2019-02-27T08:36:37.909Z,849.38
2019-02-27T08:37:37.913Z,1096.88
2019-02-27T08:38:37.935Z,1451.25
2019-02-27T08:39:37.924Z,1440.00
2019-02-27T08:40:37.934Z,1158.75
2019-02-27T08:41:37.956Z,1215.00
2019-02-27T08:42:40.252Z,1428.75
2019-02-27T08:43:37.955Z,1231.88
2019-02-27T08:44:37.962Z,1080.00
2019-02-27T08:45:37.976Z,1288.13
2019-02-27T08:46:37.977Z,1783.13
2019-02-27T08:47:37.991Z,1963.13
2019-02-27T08:48:37.992Z,1788.75
2019-02-27T08:49:38.003Z,1659.38
2019-02-27T08:50:38.012Z,1591.88
2019-02-27T08:51:39.743Z,1530.00
2019-02-27T08:52:38.027Z,1513.13
2019-02-27T08:53:38.036Z,1479.38
2019-02-27T08:54:38.045Z,1496.25
2019-02-27T08:55:39.254Z,1468.13
2019-02-27T08:56:38.066Z,1473.75
2019-02-27T08:57:38.075Z,1468.13
2019-02-27T08:58:38.085Z,1468.13
2019-02-27T08:59:39.814Z,1479.38
2019-02-27T09:00:38.109Z,1490.63
2019-02-27T09:01:38.120Z,1496.25
2019-02-27T09:02:39.663Z,1507.50
2019-02-27T09:03:38.142Z,1507.50
2019-02-27T09:04:38.152Z,1518.75
2019-02-27T09:05:38.169Z,1518.75
2019-02-27T09:06:38.173Z,1535.63
2019-02-27T09:07:38.195Z,1530.00
2019-02-27T09:08:38.202Z,1541.25
2019-02-27T09:09:38.213Z,1541.25
2019-02-27T09:10:38.225Z,1541.25
2019-02-27T09:11:40.063Z,1546.88
2019-02-27T09:12:40.208Z,1569.38
2019-02-27T09:13:38.264Z,1569.38
2019-02-27T09:14:38.279Z,1575.00
2019-02-27T09:15:38.293Z,1586.25
2019-02-27T09:16:38.305Z,1580.63
2019-02-27T09:17:38.319Z,1591.88
2019-02-27T09:18:38.331Z,1586.25
2019-02-27T09:19:38.345Z,1580.63
2019-02-27T09:20:38.369Z,1591.88
2019-02-27T09:21:38.374Z,1586.25
2019-02-27T09:22:38.387Z,1580.63
2019-02-27T09:23:38.404Z,1575.00
2019-02-27T09:24:38.417Z,1563.75
2019-02-27T09:25:38.432Z,1552.50
2019-02-27T09:26:38.444Z,1546.88
2019-02-27T09:27:38.460Z,1541.25
2019-02-27T09:28:38.475Z,1530.00
2019-02-27T09:29:38.500Z,1524.38
2019-02-27T09:30:38.507Z,1507.50
2019-02-27T09:31:38.617Z,1490.63
2019-02-27T09:32:38.539Z,1473.75
2019-02-27T09:33:39.207Z,1451.25
2019-02-27T09:34:38.568Z,1445.63
2019-02-27T09:35:38.880Z,1417.50
2019-02-27T09:36:43.012Z,1395.00
2019-02-27T09:37:39.440Z,1378.13
2019-02-27T09:38:38.631Z,1350.00
2019-02-27T09:39:38.643Z,1333.13
2019-02-27T09:40:39.572Z,1310.63
2019-02-27T09:41:38.675Z,1293.75
2019-02-27T09:42:38.691Z,1271.25
2019-02-27T09:43:38.710Z,1243.13
2019-02-27T09:44:38.734Z,1226.25
2019-02-27T09:45:38.741Z,1203.75
2019-02-27T09:46:38.754Z,1198.13
2019-02-27T09:47:38.772Z,1198.13
2019-02-27T09:48:40.293Z,1198.13
2019-02-27T09:49:40.792Z,1192.50
2019-02-27T09:50:38.845Z,1220.63
2019-02-27T09:51:38.838Z,1411.88
2019-02-27T09:52:38.857Z,2728.13
2019-02-27T09:53:38.873Z,3858.75
2019-02-27T09:54:38.889Z,3690.00
2019-02-27T09:55:38.905Z,3825.00
2019-02-27T09:56:38.922Z,3684.38
2019-02-27T09:57:38.942Z,3358.13
2019-02-27T09:58:38.956Z,3245.63
2019-02-27T09:59:40.034Z,3256.88
2019-02-27T10:00:39.018Z,3352.50
2019-02-27T10:01:39.007Z,3386.25
2019-02-27T10:02:39.025Z,3397.50
2019-02-27T10:03:39.043Z,3397.50
2019-02-27T10:04:39.064Z,3178.13
2019-02-27T10:05:40.813Z,3121.88
2019-02-27T10:06:40.397Z,3245.63
2019-02-27T10:07:39.133Z,3476.25
2019-02-27T10:08:39.145Z,3470.63
2019-02-27T10:09:40.396Z,3324.38
2019-02-27T10:10:39.166Z,3313.13
2019-02-27T10:11:39.185Z,3397.50
2019-02-27T10:12:39.202Z,3391.88
2019-02-27T10:13:39.220Z,3521.25
2019-02-27T10:14:39.240Z,3532.50
2019-02-27T10:15:39.311Z,3453.75
2019-02-27T10:16:39.276Z,3414.38
2019-02-27T10:17:41.091Z,3397.50
2019-02-27T10:18:39.309Z,3476.25
2019-02-27T10:19:39.328Z,3504.38
2019-02-27T10:20:39.346Z,3645.00
2019-02-27T10:21:41.258Z,3526.88
2019-02-27T10:22:39.390Z,3262.50
2019-02-27T10:23:39.417Z,3234.38
2019-02-27T10:24:39.419Z,3375.00
2019-02-27T10:25:43.221Z,3521.25
2019-02-27T10:26:39.473Z,3549.38
2019-02-27T10:27:39.477Z,3510.00
2019-02-27T10:28:39.863Z,3290.63
2019-02-27T10:29:39.508Z,2975.63
2019-02-27T10:30:39.528Z,1631.25
2019-02-27T10:31:39.542Z,399.38
2019-02-27T10:32:39.581Z,264.38
2019-02-27T10:33:39.579Z,236.25
2019-02-27T10:34:39.592Z,219.38
2019-02-27T10:35:39.608Z,208.13
2019-02-27T10:36:39.626Z,202.50
2019-02-27T10:37:39.702Z,202.50
2019-02-27T10:38:40.422Z,196.88
2019-02-27T10:39:39.673Z,196.88
2019-02-27T10:40:39.687Z,191.25
2019-02-27T10:41:39.698Z,191.25
2019-02-27T10:42:39.710Z,191.25
2019-02-27T10:43:39.723Z,191.25
2019-02-27T10:44:39.736Z,185.63
2019-02-27T10:45:39.754Z,185.63
2019-02-27T10:46:39.762Z,185.63
2019-02-27T10:47:39.994Z,185.63
2019-02-27T10:48:39.796Z,185.63
2019-02-27T10:49:39.810Z,185.63
2019-02-27T10:50:39.801Z,185.63
2019-02-27T10:51:41.495Z,185.63
2019-02-27T10:52:39.823Z,185.63
2019-02-27T10:53:39.833Z,185.63
2019-02-27T10:54:39.966Z,185.63
2019-02-27T10:55:39.853Z,180.00
2019-02-27T10:56:39.863Z,180.00
2019-02-27T10:57:39.873Z,180.00
2019-02-27T10:58:39.880Z,180.00
2019-02-27T10:59:39.891Z,180.00
2019-02-27T11:00:39.907Z,180.00
2019-02-27T11:01:39.907Z,180.00
2019-02-27T11:02:39.914Z,180.00
2019-02-27T11:03:39.924Z,180.00
2019-02-27T11:04:39.933Z,180.00
2019-02-27T11:05:39.948Z,180.00
2019-02-27T11:06:39.947Z,174.38
2019-02-27T11:07:39.958Z,174.38
2019-02-27T11:08:39.974Z,174.38
2019-02-27T11:09:41.202Z,174.38
2019-02-27T11:10:39.979Z,174.38
2019-02-27T11:11:39.991Z,174.38
2019-02-27T11:12:39.998Z,174.38
2019-02-27T11:13:40.004Z,174.38
2019-02-27T11:14:40.016Z,174.38
2019-02-27T11:15:41.552Z,174.38
2019-02-27T11:16:40.032Z,174.38
2019-02-27T11:17:40.074Z,174.38
2019-02-27T11:18:40.039Z,174.38
2019-02-27T11:19:40.056Z,168.75
2019-02-27T11:20:40.057Z,168.75
2019-02-27T11:21:40.061Z,168.75
2019-02-27T11:22:40.068Z,168.75
2019-02-27T11:23:41.108Z,168.75
2019-02-27T11:24:40.081Z,168.75
2019-02-27T11:25:40.097Z,168.75
2019-02-27T11:26:40.099Z,168.75
2019-02-27T11:27:40.118Z,168.75
2019-02-27T11:28:40.111Z,168.75
2019-02-27T11:29:40.117Z,168.75
2019-02-27T11:30:40.123Z,168.75
2019-02-27T11:31:42.297Z,168.75
2019-02-27T11:32:40.137Z,163.13
2019-02-27T11:33:40.146Z,168.75
2019-02-27T11:34:40.160Z,168.75
2019-02-27T11:35:40.178Z,168.75
2019-02-27T11:36:40.163Z,163.13
2019-02-27T11:37:40.171Z,163.13
2019-02-27T11:38:40.177Z,163.13
2019-02-27T11:39:40.184Z,163.13
2019-02-27T11:40:42.591Z,157.50
2019-02-27T11:41:40.197Z,157.50
2019-02-27T11:42:40.212Z,157.50
2019-02-27T11:43:40.857Z,157.50
2019-02-27T11:44:40.265Z,157.50
2019-02-27T11:45:40.228Z,157.50
2019-02-27T11:46:40.228Z,157.50
2019-02-27T11:47:45.118Z,157.50
2019-02-27T11:48:40.245Z,157.50
2019-02-27T11:49:40.249Z,157.50
2019-02-27T11:50:40.258Z,157.50
2019-02-27T11:51:40.260Z,151.88
2019-02-27T11:52:48.540Z,151.88
2019-02-27T11:53:40.275Z,157.50
2019-02-27T11:54:42.949Z,151.88
2019-02-27T11:55:40.294Z,151.88
2019-02-27T11:56:40.319Z,151.88
2019-02-27T11:57:40.325Z,151.88
2019-02-27T11:58:40.305Z,151.88
2019-02-27T11:59:40.324Z,151.88
2019-02-27T12:00:40.329Z,151.88
2019-02-27T12:01:40.323Z,146.25
2019-02-27T12:04:12.701Z,140.63
2019-02-27T12:05:12.504Z,140.63
2019-02-27T12:07:05.777Z,140.63
2019-02-27T12:08:05.408Z,146.25
2019-02-27T12:09:58.573Z,151.88
2019-02-27T12:10:58.326Z,146.25
2019-02-27T12:11:58.312Z,140.63
2019-02-27T12:13:00.817Z,140.63
2019-02-27T12:13:58.276Z,140.63
2019-02-27T12:14:58.267Z,140.63
2019-02-27T12:15:58.335Z,140.63
2019-02-27T12:16:58.267Z,140.63
2019-02-27T12:18:00.511Z,140.63
2019-02-27T12:18:58.291Z,140.63
2019-02-27T12:19:58.281Z,140.63
2019-02-27T12:20:58.294Z,140.63
2019-02-27T12:22:00.314Z,140.63
2019-02-27T12:22:58.310Z,135.00
2019-02-27T12:23:58.305Z,135.00
2019-02-27T12:24:58.403Z,135.00
2019-02-27T12:25:59.903Z,135.00
2019-02-27T12:26:58.320Z,135.00
2019-02-27T12:27:58.332Z,129.38
2019-02-27T12:28:58.370Z,129.38
2019-02-27T12:30:00.095Z,129.38
2019-02-27T12:30:58.343Z,129.38
2019-02-27T12:31:58.367Z,129.38
2019-02-27T12:32:58.368Z,135.00
2019-02-27T12:34:02.479Z,135.00
2019-02-27T12:34:58.368Z,140.63
2019-02-27T12:35:58.388Z,140.63
2019-02-27T12:36:58.401Z,135.00
2019-02-27T12:37:58.385Z,129.38
2019-02-27T12:38:58.426Z,129.38
2019-02-27T12:39:58.398Z,123.75
2019-02-27T12:40:59.042Z,123.75
2019-02-27T12:41:58.431Z,123.75
2019-02-27T12:42:58.446Z,123.75
2019-02-27T12:43:58.436Z,123.75
2019-02-27T12:44:58.423Z,123.75
2019-02-27T12:46:01.048Z,123.75
2019-02-27T12:46:58.436Z,123.75
2019-02-27T12:47:58.441Z,123.75
2019-02-27T12:48:58.447Z,123.75
2019-02-27T12:49:58.478Z,123.75
2019-02-27T12:50:58.463Z,123.75
2019-02-27T12:51:58.464Z,118.13
2019-02-27T12:52:58.470Z,118.13
2019-02-27T12:53:58.471Z,118.13
2019-02-27T12:54:59.101Z,118.13
2019-02-27T12:55:58.516Z,112.50
2019-02-27T12:56:58.513Z,112.50
2019-02-27T12:57:58.493Z,112.50
2019-02-27T12:58:59.226Z,112.50
2019-02-27T12:59:58.508Z,112.50
2019-02-27T13:00:58.514Z,112.50
2019-02-27T13:01:58.520Z,112.50